N1CU KMEM-KRBD
Flight info
| Callsign | N1CU |
|---|---|
| Flight time | N/A |
| Altitude | 38000 |
| Route | CHLDR5 ANSWA DODJE REEKO3 |
| Aircraft | CL60/M-SBDE1E2E3FGHIJ1J4J5J7M3RWXYZ/LB1V1D1 |
Departure
| Time | N/A |
|---|---|
| Airport | Memphis International Airport (KMEM) |
Arrival
| Time | 2026-05-04 02:24 |
|---|---|
| Airport | Dallas Executive Airport (KRBD) |
| Time | Latitude | Longitude | Altitude | Speed | Heading |
|---|---|---|---|---|---|
| 2026-05-04 01:48 | 33.80661 | -93.68036 | 38037 ft | 429 kts | 248° |
| 2026-05-04 01:49 | 33.77568 | -93.74168 | 38045 ft | 429 kts | 247° |
| 2026-05-04 01:49 | 33.74476 | -93.80289 | 38057 ft | 428 kts | 248° |
| 2026-05-04 01:50 | 33.71368 | -93.86431 | 38052 ft | 428 kts | 248° |
| 2026-05-04 01:50 | 33.68266 | -93.92550 | 38050 ft | 428 kts | 248° |
| 2026-05-04 01:51 | 33.65173 | -93.98640 | 38048 ft | 426 kts | 248° |
| 2026-05-04 01:51 | 33.62080 | -94.04723 | 38055 ft | 426 kts | 248° |
| 2026-05-04 01:52 | 33.58993 | -94.10780 | 38055 ft | 426 kts | 248° |
| 2026-05-04 01:52 | 33.55901 | -94.16839 | 38049 ft | 426 kts | 248° |
| 2026-05-04 01:53 | 33.52824 | -94.22858 | 38052 ft | 425 kts | 248° |
| 2026-05-04 01:53 | 33.49731 | -94.28896 | 38055 ft | 424 kts | 248° |
| 2026-05-04 01:54 | 33.46632 | -94.34939 | 38057 ft | 424 kts | 248° |
| 2026-05-04 01:54 | 33.43565 | -94.40906 | 38054 ft | 423 kts | 249° |
| 2026-05-04 01:55 | 33.40466 | -94.46928 | 38052 ft | 424 kts | 248° |
| 2026-05-04 01:55 | 33.37376 | -94.52923 | 38045 ft | 424 kts | 248° |
| 2026-05-04 01:56 | 33.34292 | -94.58894 | 38058 ft | 423 kts | 248° |
| 2026-05-04 01:56 | 33.31191 | -94.64892 | 38046 ft | 423 kts | 248° |
| 2026-05-04 01:57 | 33.28650 | -94.71114 | 38048 ft | 408 kts | 260° |
| 2026-05-04 01:57 | 33.27298 | -94.77608 | 38053 ft | 403 kts | 264° |
| 2026-05-04 01:58 | 33.26689 | -94.80867 | 37732 ft | 405 kts | 264° |
| 2026-05-04 01:58 | 33.26074 | -94.84135 | 37226 ft | 399 kts | 264° |
| 2026-05-04 01:58 | 33.25464 | -94.87370 | 36734 ft | 397 kts | 265° |
| 2026-05-04 01:58 | 33.24862 | -94.90564 | 36239 ft | 396 kts | 265° |
| 2026-05-04 01:59 | 33.24256 | -94.93774 | 35747 ft | 397 kts | 264° |
| 2026-05-04 01:59 | 33.23647 | -94.97007 | 35215 ft | 400 kts | 264° |
| 2026-05-04 01:59 | 33.23037 | -95.00235 | 34694 ft | 403 kts | 264° |
| 2026-05-04 01:59 | 33.22419 | -95.03501 | 34152 ft | 406 kts | 264° |
| 2026-05-04 02:00 | 33.21795 | -95.06789 | 33633 ft | 408 kts | 264° |
| 2026-05-04 02:00 | 33.21160 | -95.10125 | 33060 ft | 411 kts | 264° |
| 2026-05-04 02:00 | 33.20531 | -95.13419 | 32535 ft | 409 kts | 264° |
| 2026-05-04 02:00 | 33.19895 | -95.16742 | 31963 ft | 406 kts | 264° |
| 2026-05-04 02:01 | 33.19270 | -95.20004 | 31449 ft | 405 kts | 263° |
| 2026-05-04 02:01 | 33.18645 | -95.23264 | 30905 ft | 403 kts | 264° |
| 2026-05-04 02:01 | 33.18020 | -95.26524 | 30364 ft | 407 kts | 264° |
| 2026-05-04 02:01 | 33.17388 | -95.29820 | 29829 ft | 410 kts | 263° |
| 2026-05-04 02:02 | 33.16743 | -95.33170 | 29285 ft | 409 kts | 263° |
| 2026-05-04 02:02 | 33.16114 | -95.36432 | 28741 ft | 408 kts | 263° |
| 2026-05-04 02:02 | 33.15481 | -95.39705 | 28223 ft | 406 kts | 263° |
| 2026-05-04 02:02 | 33.14843 | -95.43002 | 27677 ft | 405 kts | 263° |
| 2026-05-04 02:03 | 33.14211 | -95.46261 | 27146 ft | 403 kts | 262° |
| 2026-05-04 02:03 | 33.13585 | -95.49487 | 26609 ft | 401 kts | 262° |
| 2026-05-04 02:03 | 33.12954 | -95.52733 | 26080 ft | 399 kts | 262° |
| 2026-05-04 02:03 | 33.12334 | -95.55917 | 25558 ft | 397 kts | 262° |
| 2026-05-04 02:04 | 33.11705 | -95.59146 | 25028 ft | 395 kts | 261° |
| 2026-05-04 02:04 | 33.11084 | -95.62326 | 24497 ft | 394 kts | 261° |
| 2026-05-04 02:04 | 33.10465 | -95.65497 | 23981 ft | 392 kts | 260° |
| 2026-05-04 02:04 | 33.09845 | -95.68665 | 23460 ft | 390 kts | 260° |
| 2026-05-04 02:05 | 33.09228 | -95.71814 | 22945 ft | 389 kts | 260° |
| 2026-05-04 02:05 | 33.08608 | -95.74970 | 22419 ft | 388 kts | 259° |
| 2026-05-04 02:05 | 33.07999 | -95.78069 | 21904 ft | 386 kts | 259° |
| 2026-05-04 02:05 | 33.07393 | -95.81150 | 21394 ft | 384 kts | 259° |
| 2026-05-04 02:06 | 33.06778 | -95.84272 | 20884 ft | 383 kts | 259° |
| 2026-05-04 02:06 | 33.06175 | -95.87328 | 20384 ft | 382 kts | 259° |
| 2026-05-04 02:06 | 33.05566 | -95.90409 | 19862 ft | 381 kts | 259° |
| 2026-05-04 02:06 | 33.04954 | -95.93501 | 19359 ft | 380 kts | 259° |
| 2026-05-04 02:07 | 33.04350 | -95.96548 | 18869 ft | 379 kts | 259° |
| 2026-05-04 02:07 | 33.03746 | -95.99591 | 18305 ft | 378 kts | 259° |
| 2026-05-04 02:07 | 33.03149 | -96.02596 | 17806 ft | 374 kts | 258° |
| 2026-05-04 02:07 | 33.02543 | -96.05642 | 17310 ft | 374 kts | 258° |
| 2026-05-04 02:08 | 33.01948 | -96.08630 | 16813 ft | 371 kts | 258° |
| 2026-05-04 02:08 | 33.01355 | -96.11601 | 16328 ft | 369 kts | 258° |
| 2026-05-04 02:08 | 33.00767 | -96.14545 | 15827 ft | 367 kts | 257° |
| 2026-05-04 02:08 | 33.00175 | -96.17502 | 15356 ft | 365 kts | 257° |
| 2026-05-04 02:09 | 32.99589 | -96.20429 | 14862 ft | 363 kts | 257° |
| 2026-05-04 02:09 | 32.99009 | -96.23319 | 14384 ft | 360 kts | 257° |
| 2026-05-04 02:09 | 32.98432 | -96.26190 | 13905 ft | 349 kts | 257° |
| 2026-05-04 02:09 | 32.97883 | -96.28925 | 13455 ft | 338 kts | 256° |
| 2026-05-04 02:10 | 32.97342 | -96.31613 | 13017 ft | 328 kts | 256° |
| 2026-05-04 02:10 | 32.96818 | -96.34212 | 12581 ft | 320 kts | 256° |
| 2026-05-04 02:10 | 32.96306 | -96.36749 | 12151 ft | 312 kts | 256° |
| 2026-05-04 02:10 | 32.95804 | -96.39235 | 11738 ft | 305 kts | 256° |
| 2026-05-04 02:11 | 32.95316 | -96.41651 | 11379 ft | 297 kts | 256° |
| 2026-05-04 02:11 | 32.94834 | -96.44031 | 10968 ft | 292 kts | 256° |
| 2026-05-04 02:11 | 32.94363 | -96.46353 | 10593 ft | 287 kts | 256° |
| 2026-05-04 02:11 | 32.93901 | -96.48632 | 10213 ft | 282 kts | 256° |
| 2026-05-04 02:12 | 32.93442 | -96.50894 | 9842 ft | 279 kts | 256° |
| 2026-05-04 02:12 | 32.92984 | -96.53144 | 9464 ft | 279 kts | 256° |
| 2026-05-04 02:12 | 32.92525 | -96.55397 | 9094 ft | 279 kts | 256° |
| 2026-05-04 02:12 | 32.92070 | -96.57636 | 8723 ft | 278 kts | 256° |
| 2026-05-04 02:13 | 32.91615 | -96.59866 | 8360 ft | 274 kts | 256° |
| 2026-05-04 02:13 | 32.91172 | -96.62037 | 8001 ft | 269 kts | 256° |
| 2026-05-04 02:13 | 32.90735 | -96.64176 | 7642 ft | 264 kts | 256° |
| 2026-05-04 02:13 | 32.90306 | -96.66273 | 7299 ft | 259 kts | 255° |
| 2026-05-04 02:14 | 32.89880 | -96.68354 | 6952 ft | 255 kts | 255° |
| 2026-05-04 02:14 | 32.89459 | -96.70411 | 6610 ft | 250 kts | 255° |
| 2026-05-04 02:14 | 32.89051 | -96.72401 | 6286 ft | 246 kts | 255° |
| 2026-05-04 02:14 | 32.88652 | -96.74345 | 5961 ft | 242 kts | 255° |
| 2026-05-04 02:15 | 32.88205 | -96.76259 | 5641 ft | 237 kts | 248° |
| 2026-05-04 02:15 | 32.87564 | -96.78062 | 5327 ft | 233 kts | 245° |
| 2026-05-04 02:15 | 32.86926 | -96.79810 | 5022 ft | 229 kts | 245° |
| 2026-05-04 02:15 | 32.86298 | -96.81538 | 4716 ft | 226 kts | 244° |
| 2026-05-04 02:16 | 32.85680 | -96.83240 | 4420 ft | 222 kts | 244° |
| 2026-05-04 02:16 | 32.85081 | -96.84891 | 4134 ft | 208 kts | 244° |
| 2026-05-04 02:16 | 32.84501 | -96.86389 | 3873 ft | 193 kts | 236° |
| 2026-05-04 02:16 | 32.83599 | -96.87485 | 3624 ft | 179 kts | 217° |
| 2026-05-04 02:17 | 32.82650 | -96.88396 | 3387 ft | 170 kts | 218° |
| 2026-05-04 02:17 | 32.81758 | -96.89265 | 3166 ft | 161 kts | 218° |
| 2026-05-04 02:17 | 32.80929 | -96.90074 | 2930 ft | 147 kts | 217° |
| 2026-05-04 02:17 | 32.80175 | -96.90811 | 2763 ft | 134 kts | 217° |
| 2026-05-04 02:18 | 32.79458 | -96.91509 | 2605 ft | 133 kts | 216° |
| 2026-05-04 02:18 | 32.78734 | -96.92213 | 2419 ft | 133 kts | 216° |
| 2026-05-04 02:18 | 32.78025 | -96.92903 | 2244 ft | 131 kts | 216° |
| 2026-05-04 02:18 | 32.77245 | -96.93420 | 2104 ft | 128 kts | 186° |
| 2026-05-04 02:19 | 32.76358 | -96.93246 | 2080 ft | 130 kts | 166° |
| 2026-05-04 02:19 | 32.75491 | -96.92943 | 2123 ft | 125 kts | 168° |
| 2026-05-04 02:19 | 32.74692 | -96.92682 | 2124 ft | 115 kts | 168° |
| 2026-05-04 02:19 | 32.73932 | -96.92441 | 1961 ft | 108 kts | 169° |
| 2026-05-04 02:20 | 32.73216 | -96.92212 | 1853 ft | 105 kts | 168° |
| 2026-05-04 02:20 | 32.72519 | -96.91985 | 1709 ft | 102 kts | 165° |
| 2026-05-04 02:20 | 32.71925 | -96.91492 | 1574 ft | 107 kts | 142° |
| 2026-05-04 02:20 | 32.71405 | -96.90829 | 1444 ft | 108 kts | 141° |
| 2026-05-04 02:21 | 32.70883 | -96.90192 | 1296 ft | 108 kts | 141° |
| 2026-05-04 02:21 | 32.70343 | -96.89550 | 1152 ft | 110 kts | 141° |
| 2026-05-04 02:21 | 32.69802 | -96.88908 | 988 ft | 111 kts | 140° |
| 2026-05-04 02:21 | 32.69253 | -96.88251 | 819 ft | 112 kts | 139° |
| 2026-05-04 02:22 | 32.68693 | -96.87595 | 677 ft | 111 kts | 139° |
| 2026-05-04 02:22 | 32.68219 | -96.87062 | 653 ft | 77 kts | 143° |
| 2026-05-04 02:24 | 32.68045 | -96.86843 | 654 ft | 57 kts | 132° |
| 2026-05-04 02:24 | 32.67860 | -96.86614 | 654 ft | 18 kts | 133° |
| 2026-05-04 02:24 | 32.67887 | -96.86521 | 653 ft | 14 kts | 44° |
| 2026-05-04 02:25 | 32.67935 | -96.86475 | 652 ft | 7 kts | 1° |
| 2026-05-04 02:25 | 32.67988 | -96.86497 | 652 ft | 7 kts | 337° |
| 2026-05-04 02:25 | 32.68029 | -96.86532 | 653 ft | 6 kts | 358° |
| 2026-05-04 02:25 | 32.68035 | -96.86505 | 652 ft | 0 kts | 135° |